sensor_id;sensor_type;location;lat;lon;timestamp;temperature;humidity
14993;DHT22;7592;51.088;13.732;2023-11-19T00:01:15;5.70;99.90
14993;DHT22;7592;51.088;13.732;2023-11-19T00:06:08;5.70;99.90
14993;DHT22;7592;51.088;13.732;2023-11-19T00:11:04;5.70;99.90
14993;DHT22;7592;51.088;13.732;2023-11-19T00:15:56;5.60;99.90
14993;DHT22;7592;51.088;13.732;2023-11-19T00:20:48;5.60;99.90
14993;DHT22;7592;51.088;13.732;2023-11-19T00:25:41;5.60;99.90
14993;DHT22;7592;51.088;13.732;2023-11-19T00:30:34;5.60;99.90
14993;DHT22;7592;51.088;13.732;2023-11-19T00:35:26;5.50;99.90
14993;DHT22;7592;51.088;13.732;2023-11-19T00:40:19;5.40;99.90
14993;DHT22;7592;51.088;13.732;2023-11-19T00:45:13;5.40;99.90
14993;DHT22;7592;51.088;13.732;2023-11-19T00:50:07;5.40;99.90
14993;DHT22;7592;51.088;13.732;2023-11-19T00:55:02;5.40;99.90
14993;DHT22;7592;51.088;13.732;2023-11-19T00:59:54;5.40;99.90
14993;DHT22;7592;51.088;13.732;2023-11-19T01:04:46;5.30;99.90
14993;DHT22;7592;51.088;13.732;2023-11-19T01:09:41;5.30;99.90
14993;DHT22;7592;51.088;13.732;2023-11-19T01:14:33;5.30;99.90
14993;DHT22;7592;51.088;13.732;2023-11-19T01:19:25;5.30;99.90
14993;DHT22;7592;51.088;13.732;2023-11-19T01:24:18;5.30;99.90
14993;DHT22;7592;51.088;13.732;2023-11-19T01:29:16;5.40;99.90
14993;DHT22;7592;51.088;13.732;2023-11-19T01:34:09;5.40;99.90
14993;DHT22;7592;51.088;13.732;2023-11-19T01:39:02;5.40;99.90
14993;DHT22;7592;51.088;13.732;2023-11-19T01:43:56;5.50;99.90
14993;DHT22;7592;51.088;13.732;2023-11-19T01:48:48;5.60;99.90
14993;DHT22;7592;51.088;13.732;2023-11-19T01:53:40;5.60;99.90
14993;DHT22;7592;51.088;13.732;2023-11-19T01:58:33;5.70;99.90
14993;DHT22;7592;51.088;13.732;2023-11-19T02:03:26;5.80;99.90
14993;DHT22;7592;51.088;13.732;2023-11-19T02:08:21;5.90;99.90
14993;DHT22;7592;51.088;13.732;2023-11-19T02:13:14;5.90;99.90
14993;DHT22;7592;51.088;13.732;2023-11-19T02:18:40;5.90;99.90
14993;DHT22;7592;51.088;13.732;2023-11-19T02:23:33;5.90;99.90
14993;DHT22;7592;51.088;13.732;2023-11-19T02:28:25;5.90;99.90
14993;DHT22;7592;51.088;13.732;2023-11-19T02:33:17;5.90;99.90
14993;DHT22;7592;51.088;13.732;2023-11-19T02:38:09;5.90;99.90
14993;DHT22;7592;51.088;13.732;2023-11-19T02:43:02;6.00;99.90
14993;DHT22;7592;51.088;13.732;2023-11-19T02:47:57;6.00;99.90
14993;DHT22;7592;51.088;13.732;2023-11-19T02:52:49;6.00;99.90
14993;DHT22;7592;51.088;13.732;2023-11-19T02:57:42;6.10;99.90
14993;DHT22;7592;51.088;13.732;2023-11-19T03:02:40;6.10;99.90
14993;DHT22;7592;51.088;13.732;2023-11-19T03:07:43;6.10;99.90
14993;DHT22;7592;51.088;13.732;2023-11-19T03:12:35;6.20;99.90
14993;DHT22;7592;51.088;13.732;2023-11-19T03:17:27;6.20;99.90
14993;DHT22;7592;51.088;13.732;2023-11-19T03:22:20;6.20;99.90
14993;DHT22;7592;51.088;13.732;2023-11-19T03:27:12;6.20;99.90
14993;DHT22;7592;51.088;13.732;2023-11-19T03:32:07;6.20;99.90
14993;DHT22;7592;51.088;13.732;2023-11-19T03:36:59;6.30;99.90
14993;DHT22;7592;51.088;13.732;2023-11-19T03:41:51;6.30;99.90
14993;DHT22;7592;51.088;13.732;2023-11-19T03:46:43;6.30;99.90
14993;DHT22;7592;51.088;13.732;2023-11-19T03:51:35;6.30;99.90
14993;DHT22;7592;51.088;13.732;2023-11-19T03:56:27;6.30;99.90
14993;DHT22;7592;51.088;13.732;2023-11-19T04:01:19;6.30;99.90
14993;DHT22;7592;51.088;13.732;2023-11-19T04:06:12;6.30;99.90
14993;DHT22;7592;51.088;13.732;2023-11-19T04:11:05;6.30;99.90
14993;DHT22;7592;51.088;13.732;2023-11-19T04:15:57;6.30;99.90
14993;DHT22;7592;51.088;13.732;2023-11-19T04:20:49;6.30;99.90
14993;DHT22;7592;51.088;13.732;2023-11-19T04:25:42;6.30;99.90
14993;DHT22;7592;51.088;13.732;2023-11-19T04:30:35;6.30;99.90
14993;DHT22;7592;51.088;13.732;2023-11-19T04:35:27;6.20;99.90
14993;DHT22;7592;51.088;13.732;2023-11-19T04:40:19;5.90;99.90
14993;DHT22;7592;51.088;13.732;2023-11-19T04:45:14;5.50;99.90
14993;DHT22;7592;51.088;13.732;2023-11-19T04:50:08;5.30;99.90
14993;DHT22;7592;51.088;13.732;2023-11-19T04:55:03;5.30;99.90
14993;DHT22;7592;51.088;13.732;2023-11-19T04:59:55;5.30;99.90
14993;DHT22;7592;51.088;13.732;2023-11-19T05:04:47;5.20;99.90
14993;DHT22;7592;51.088;13.732;2023-11-19T05:09:41;5.20;99.90
14993;DHT22;7592;51.088;13.732;2023-11-19T05:14:35;5.20;99.90
14993;DHT22;7592;51.088;13.732;2023-11-19T05:19:27;5.20;99.90
14993;DHT22;7592;51.088;13.732;2023-11-19T05:24:19;5.30;99.90
14993;DHT22;7592;51.088;13.732;2023-11-19T05:29:11;5.20;99.90
14993;DHT22;7592;51.088;13.732;2023-11-19T05:34:03;5.30;99.90
14993;DHT22;7592;51.088;13.732;2023-11-19T05:38:56;5.20;99.90
14993;DHT22;7592;51.088;13.732;2023-11-19T05:43:48;5.10;99.90
14993;DHT22;7592;51.088;13.732;2023-11-19T05:48:40;5.10;99.90
14993;DHT22;7592;51.088;13.732;2023-11-19T05:53:32;5.10;99.90
14993;DHT22;7592;51.088;13.732;2023-11-19T05:58:25;5.20;99.90
14993;DHT22;7592;51.088;13.732;2023-11-19T06:03:18;5.20;99.90
14993;DHT22;7592;51.088;13.732;2023-11-19T06:08:10;5.20;99.90
14993;DHT22;7592;51.088;13.732;2023-11-19T06:13:03;5.20;99.90
14993;DHT22;7592;51.088;13.732;2023-11-19T06:17:57;5.20;99.90
14993;DHT22;7592;51.088;13.732;2023-11-19T06:22:52;5.20;99.90
14993;DHT22;7592;51.088;13.732;2023-11-19T06:27:44;5.20;99.90
14993;DHT22;7592;51.088;13.732;2023-11-19T06:32:37;5.30;99.90
14993;DHT22;7592;51.088;13.732;2023-11-19T06:37:29;5.30;99.90
14993;DHT22;7592;51.088;13.732;2023-11-19T06:42:21;5.40;99.90
14993;DHT22;7592;51.088;13.732;2023-11-19T06:47:13;5.50;99.90
14993;DHT22;7592;51.088;13.732;2023-11-19T06:52:05;5.50;99.90
14993;DHT22;7592;51.088;13.732;2023-11-19T06:57:00;5.60;99.90
14993;DHT22;7592;51.088;13.732;2023-11-19T07:01:52;5.70;99.90
14993;DHT22;7592;51.088;13.732;2023-11-19T07:06:44;5.70;99.90
14993;DHT22;7592;51.088;13.732;2023-11-19T07:11:40;5.90;99.90
14993;DHT22;7592;51.088;13.732;2023-11-19T07:16:33;6.00;99.90
14993;DHT22;7592;51.088;13.732;2023-11-19T07:21:29;6.00;99.90
14993;DHT22;7592;51.088;13.732;2023-11-19T07:26:22;6.10;99.90
14993;DHT22;7592;51.088;13.732;2023-11-19T07:31:14;6.10;99.90
14993;DHT22;7592;51.088;13.732;2023-11-19T07:36:07;6.20;99.90
14993;DHT22;7592;51.088;13.732;2023-11-19T07:40:59;6.30;99.90
14993;DHT22;7592;51.088;13.732;2023-11-19T07:45:51;6.40;99.90
14993;DHT22;7592;51.088;13.732;2023-11-19T07:50:43;6.50;99.90
14993;DHT22;7592;51.088;13.732;2023-11-19T07:55:35;6.60;99.90
14993;DHT22;7592;51.088;13.732;2023-11-19T08:00:27;6.70;99.90
14993;DHT22;7592;51.088;13.732;2023-11-19T08:05:19;6.80;99.90
14993;DHT22;7592;51.088;13.732;2023-11-19T08:10:12;6.70;99.90
14993;DHT22;7592;51.088;13.732;2023-11-19T08:15:04;6.80;99.90
14993;DHT22;7592;51.088;13.732;2023-11-19T08:19:56;6.90;99.90
14993;DHT22;7592;51.088;13.732;2023-11-19T08:24:48;7.10;99.90
14993;DHT22;7592;51.088;13.732;2023-11-19T08:29:40;7.40;99.90
14993;DHT22;7592;51.088;13.732;2023-11-19T08:34:33;7.70;99.90
14993;DHT22;7592;51.088;13.732;2023-11-19T08:39:25;8.00;99.90
14993;DHT22;7592;51.088;13.732;2023-11-19T08:44:17;8.30;99.90
14993;DHT22;7592;51.088;13.732;2023-11-19T08:49:11;9.00;99.90
14993;DHT22;7592;51.088;13.732;2023-11-19T08:54:03;9.10;99.90
14993;DHT22;7592;51.088;13.732;2023-11-19T08:58:56;9.30;99.90
14993;DHT22;7592;51.088;13.732;2023-11-19T09:03:48;9.40;99.90
14993;DHT22;7592;51.088;13.732;2023-11-19T09:08:42;9.30;99.90
14993;DHT22;7592;51.088;13.732;2023-11-19T09:13:35;9.10;99.90
14993;DHT22;7592;51.088;13.732;2023-11-19T09:18:27;9.00;99.90
14993;DHT22;7592;51.088;13.732;2023-11-19T09:23:20;9.00;99.90
14993;DHT22;7592;51.088;13.732;2023-11-19T09:28:12;9.10;99.90
14993;DHT22;7592;51.088;13.732;2023-11-19T09:33:06;9.30;99.90
14993;DHT22;7592;51.088;13.732;2023-11-19T09:37:58;9.50;99.90
14993;DHT22;7592;51.088;13.732;2023-11-19T09:42:52;9.90;99.90
14993;DHT22;7592;51.088;13.732;2023-11-19T09:47:45;10.30;99.90
14993;DHT22;7592;51.088;13.732;2023-11-19T09:52:38;10.50;99.90
14993;DHT22;7592;51.088;13.732;2023-11-19T09:57:32;10.50;99.90
14993;DHT22;7592;51.088;13.732;2023-11-19T10:02:29;10.90;99.90
14993;DHT22;7592;51.088;13.732;2023-11-19T10:07:24;10.90;99.90
14993;DHT22;7592;51.088;13.732;2023-11-19T10:12:18;11.20;99.90
14993;DHT22;7592;51.088;13.732;2023-11-19T10:17:10;12.60;99.90
14993;DHT22;7592;51.088;13.732;2023-11-19T10:22:05;16.30;99.90
14993;DHT22;7592;51.088;13.732;2023-11-19T10:26:58;18.10;99.90
14993;DHT22;7592;51.088;13.732;2023-11-19T10:31:57;16.70;99.90
14993;DHT22;7592;51.088;13.732;2023-11-19T10:37:27;15.40;99.90
14993;DHT22;7592;51.088;13.732;2023-11-19T10:42:20;14.60;99.90
14993;DHT22;7592;51.088;13.732;2023-11-19T10:47:14;14.20;99.90
14993;DHT22;7592;51.088;13.732;2023-11-19T10:52:09;14.10;99.90
14993;DHT22;7592;51.088;13.732;2023-11-19T10:57:02;14.80;99.90
14993;DHT22;7592;51.088;13.732;2023-11-19T11:01:54;14.70;99.90
14993;DHT22;7592;51.088;13.732;2023-11-19T11:06:48;14.60;99.90
14993;DHT22;7592;51.088;13.732;2023-11-19T11:11:41;14.60;99.90
14993;DHT22;7592;51.088;13.732;2023-11-19T11:16:36;14.30;99.90
14993;DHT22;7592;51.088;13.732;2023-11-19T11:21:29;14.00;99.90
14993;DHT22;7592;51.088;13.732;2023-11-19T11:32:21;13.50;99.90
14993;DHT22;7592;51.088;13.732;2023-11-19T11:47:17;13.40;99.90
14993;DHT22;7592;51.088;13.732;2023-11-19T11:52:09;13.30;99.90
14993;DHT22;7592;51.088;13.732;2023-11-19T11:57:13;13.80;99.90
14993;DHT22;7592;51.088;13.732;2023-11-19T12:02:08;14.40;99.90
14993;DHT22;7592;51.088;13.732;2023-11-19T12:07:12;14.90;99.90
14993;DHT22;7592;51.088;13.732;2023-11-19T12:22:26;15.10;99.90
14993;DHT22;7592;51.088;13.732;2023-11-19T12:27:18;14.80;99.90
14993;DHT22;7592;51.088;13.732;2023-11-19T12:32:10;14.60;99.90
14993;DHT22;7592;51.088;13.732;2023-11-19T12:37:06;14.80;99.90
14993;DHT22;7592;51.088;13.732;2023-11-19T12:42:00;15.50;99.90
14993;DHT22;7592;51.088;13.732;2023-11-19T12:47:06;16.00;99.90
14993;DHT22;7592;51.088;13.732;2023-11-19T12:51:59;16.00;99.90
14993;DHT22;7592;51.088;13.732;2023-11-19T12:56:53;16.00;99.90
14993;DHT22;7592;51.088;13.732;2023-11-19T13:01:58;16.10;99.90
14993;DHT22;7592;51.088;13.732;2023-11-19T13:06:50;16.00;99.90
14993;DHT22;7592;51.088;13.732;2023-11-19T13:11:46;15.80;99.90
14993;DHT22;7592;51.088;13.732;2023-11-19T13:16:38;16.00;99.90
14993;DHT22;7592;51.088;13.732;2023-11-19T13:21:31;15.20;99.90
14993;DHT22;7592;51.088;13.732;2023-11-19T13:26:24;14.80;99.90
14993;DHT22;7592;51.088;13.732;2023-11-19T13:31:16;14.20;99.90
14993;DHT22;7592;51.088;13.732;2023-11-19T13:36:09;13.90;99.90
14993;DHT22;7592;51.088;13.732;2023-11-19T13:41:04;13.60;99.90
14993;DHT22;7592;51.088;13.732;2023-11-19T13:45:57;13.60;99.90
14993;DHT22;7592;51.088;13.732;2023-11-19T13:50:50;13.40;99.90
14993;DHT22;7592;51.088;13.732;2023-11-19T13:55:42;13.30;99.90
14993;DHT22;7592;51.088;13.732;2023-11-19T14:00:35;13.50;99.90
14993;DHT22;7592;51.088;13.732;2023-11-19T14:05:27;13.90;99.90
14993;DHT22;7592;51.088;13.732;2023-11-19T14:10:22;14.10;99.90
14993;DHT22;7592;51.088;13.732;2023-11-19T14:15:15;14.20;99.90
14993;DHT22;7592;51.088;13.732;2023-11-19T14:20:09;14.10;99.90
14993;DHT22;7592;51.088;13.732;2023-11-19T14:25:09;13.70;99.90
14993;DHT22;7592;51.088;13.732;2023-11-19T14:30:05;13.50;99.90
14993;DHT22;7592;51.088;13.732;2023-11-19T14:34:57;13.50;99.90
14993;DHT22;7592;51.088;13.732;2023-11-19T14:39:50;13.30;99.90
14993;DHT22;7592;51.088;13.732;2023-11-19T14:44:42;13.20;99.90
14993;DHT22;7592;51.088;13.732;2023-11-19T14:49:35;13.10;99.90
14993;DHT22;7592;51.088;13.732;2023-11-19T14:54:27;12.90;99.90
14993;DHT22;7592;51.088;13.732;2023-11-19T14:59:19;12.90;99.90
14993;DHT22;7592;51.088;13.732;2023-11-19T15:04:12;12.70;99.90
14993;DHT22;7592;51.088;13.732;2023-11-19T15:09:04;12.60;99.90
14993;DHT22;7592;51.088;13.732;2023-11-19T15:13:57;12.20;99.90
14993;DHT22;7592;51.088;13.732;2023-11-19T15:18:49;12.00;99.90
14993;DHT22;7592;51.088;13.732;2023-11-19T15:23:41;11.60;99.90
14993;DHT22;7592;51.088;13.732;2023-11-19T15:28:33;11.50;99.90
14993;DHT22;7592;51.088;13.732;2023-11-19T15:33:26;11.30;99.90
14993;DHT22;7592;51.088;13.732;2023-11-19T15:38:18;11.10;99.90
14993;DHT22;7592;51.088;13.732;2023-11-19T15:43:10;10.90;99.90
14993;DHT22;7592;51.088;13.732;2023-11-19T15:48:02;10.90;99.90
14993;DHT22;7592;51.088;13.732;2023-11-19T15:52:54;10.80;99.90
14993;DHT22;7592;51.088;13.732;2023-11-19T15:57:46;10.70;99.90
14993;DHT22;7592;51.088;13.732;2023-11-19T16:02:38;10.80;99.90
14993;DHT22;7592;51.088;13.732;2023-11-19T16:07:31;10.80;99.90
14993;DHT22;7592;51.088;13.732;2023-11-19T16:12:24;10.70;99.90
14993;DHT22;7592;51.088;13.732;2023-11-19T16:17:16;10.60;99.90
14993;DHT22;7592;51.088;13.732;2023-11-19T16:22:09;10.60;99.90
14993;DHT22;7592;51.088;13.732;2023-11-19T16:27:04;10.70;99.90
14993;DHT22;7592;51.088;13.732;2023-11-19T16:31:56;10.70;99.90
14993;DHT22;7592;51.088;13.732;2023-11-19T16:36:48;10.50;99.90
14993;DHT22;7592;51.088;13.732;2023-11-19T16:41:41;10.40;99.90
14993;DHT22;7592;51.088;13.732;2023-11-19T16:46:36;10.20;99.90
14993;DHT22;7592;51.088;13.732;2023-11-19T16:51:28;10.20;99.90
14993;DHT22;7592;51.088;13.732;2023-11-19T16:56:20;10.20;99.90
14993;DHT22;7592;51.088;13.732;2023-11-19T17:01:14;10.20;99.90
14993;DHT22;7592;51.088;13.732;2023-11-19T17:06:07;10.10;99.90
14993;DHT22;7592;51.088;13.732;2023-11-19T17:11:00;10.20;99.90
14993;DHT22;7592;51.088;13.732;2023-11-19T17:15:54;9.90;99.90
14993;DHT22;7592;51.088;13.732;2023-11-19T17:20:47;9.80;99.90
14993;DHT22;7592;51.088;13.732;2023-11-19T17:25:40;9.70;99.90
14993;DHT22;7592;51.088;13.732;2023-11-19T17:30:33;9.70;99.90
14993;DHT22;7592;51.088;13.732;2023-11-19T17:35:26;9.70;99.90
14993;DHT22;7592;51.088;13.732;2023-11-19T17:40:18;9.80;99.90
14993;DHT22;7592;51.088;13.732;2023-11-19T17:45:10;9.70;99.90
14993;DHT22;7592;51.088;13.732;2023-11-19T17:50:02;9.60;99.90
14993;DHT22;7592;51.088;13.732;2023-11-19T17:55:15;9.70;99.90
14993;DHT22;7592;51.088;13.732;2023-11-19T18:00:08;9.90;99.90
14993;DHT22;7592;51.088;13.732;2023-11-19T18:05:05;10.00;99.90
14993;DHT22;7592;51.088;13.732;2023-11-19T18:09:57;10.10;99.90
14993;DHT22;7592;51.088;13.732;2023-11-19T18:14:50;10.20;99.90
14993;DHT22;7592;51.088;13.732;2023-11-19T18:19:45;10.20;99.90
14993;DHT22;7592;51.088;13.732;2023-11-19T18:24:37;10.30;99.90
14993;DHT22;7592;51.088;13.732;2023-11-19T18:29:30;10.30;99.90
14993;DHT22;7592;51.088;13.732;2023-11-19T18:34:22;10.30;99.90
14993;DHT22;7592;51.088;13.732;2023-11-19T18:39:15;10.30;99.90
14993;DHT22;7592;51.088;13.732;2023-11-19T18:44:07;10.20;99.90
14993;DHT22;7592;51.088;13.732;2023-11-19T18:48:59;10.40;99.90
14993;DHT22;7592;51.088;13.732;2023-11-19T18:53:52;10.30;99.90
14993;DHT22;7592;51.088;13.732;2023-11-19T18:58:44;10.20;99.90
14993;DHT22;7592;51.088;13.732;2023-11-19T19:03:36;10.10;99.90
14993;DHT22;7592;51.088;13.732;2023-11-19T19:08:29;10.00;99.90
14993;DHT22;7592;51.088;13.732;2023-11-19T19:13:21;9.80;99.90
14993;DHT22;7592;51.088;13.732;2023-11-19T19:18:16;9.60;99.90
14993;DHT22;7592;51.088;13.732;2023-11-19T19:23:09;9.70;99.90
14993;DHT22;7592;51.088;13.732;2023-11-19T19:28:03;9.90;99.90
14993;DHT22;7592;51.088;13.732;2023-11-19T19:33:00;10.10;99.90
14993;DHT22;7592;51.088;13.732;2023-11-19T19:37:52;10.20;99.90
14993;DHT22;7592;51.088;13.732;2023-11-19T19:42:44;10.20;99.90
14993;DHT22;7592;51.088;13.732;2023-11-19T19:47:37;10.20;99.90
14993;DHT22;7592;51.088;13.732;2023-11-19T19:52:32;10.40;99.90
14993;DHT22;7592;51.088;13.732;2023-11-19T19:57:27;10.50;99.90
14993;DHT22;7592;51.088;13.732;2023-11-19T20:02:19;10.60;99.90
14993;DHT22;7592;51.088;13.732;2023-11-19T20:07:11;10.80;99.90
14993;DHT22;7592;51.088;13.732;2023-11-19T20:12:05;11.00;99.90
14993;DHT22;7592;51.088;13.732;2023-11-19T20:16:57;11.00;99.90
14993;DHT22;7592;51.088;13.732;2023-11-19T20:21:52;11.20;99.90
14993;DHT22;7592;51.088;13.732;2023-11-19T20:26:44;11.20;99.90
14993;DHT22;7592;51.088;13.732;2023-11-19T20:31:41;11.10;99.90
14993;DHT22;7592;51.088;13.732;2023-11-19T20:36:34;11.10;99.90
14993;DHT22;7592;51.088;13.732;2023-11-19T20:41:26;11.10;99.90
14993;DHT22;7592;51.088;13.732;2023-11-19T20:46:19;11.20;99.90
14993;DHT22;7592;51.088;13.732;2023-11-19T20:51:12;11.30;99.90
14993;DHT22;7592;51.088;13.732;2023-11-19T20:56:04;11.30;99.90
14993;DHT22;7592;51.088;13.732;2023-11-19T21:07:17;11.30;99.90
14993;DHT22;7592;51.088;13.732;2023-11-19T21:12:09;11.30;99.90
14993;DHT22;7592;51.088;13.732;2023-11-19T21:17:01;11.30;99.90
14993;DHT22;7592;51.088;13.732;2023-11-19T21:21:54;11.20;99.90
14993;DHT22;7592;51.088;13.732;2023-11-19T21:26:46;11.20;99.90
14993;DHT22;7592;51.088;13.732;2023-11-19T21:31:41;11.10;99.90
14993;DHT22;7592;51.088;13.732;2023-11-19T21:36:36;11.10;99.90
14993;DHT22;7592;51.088;13.732;2023-11-19T21:41:29;11.10;99.90
14993;DHT22;7592;51.088;13.732;2023-11-19T21:46:21;11.10;99.90
14993;DHT22;7592;51.088;13.732;2023-11-19T21:51:13;11.10;99.90
14993;DHT22;7592;51.088;13.732;2023-11-19T21:56:06;11.10;99.90
14993;DHT22;7592;51.088;13.732;2023-11-19T22:01:01;11.10;99.90
14993;DHT22;7592;51.088;13.732;2023-11-19T22:05:56;11.10;99.90
14993;DHT22;7592;51.088;13.732;2023-11-19T22:10:50;11.20;99.90
14993;DHT22;7592;51.088;13.732;2023-11-19T22:15:47;11.20;99.90
14993;DHT22;7592;51.088;13.732;2023-11-19T22:20:41;11.20;99.90
14993;DHT22;7592;51.088;13.732;2023-11-19T22:25:34;11.20;99.90
14993;DHT22;7592;51.088;13.732;2023-11-19T22:30:29;11.20;99.90
14993;DHT22;7592;51.088;13.732;2023-11-19T22:35:28;11.10;99.90
14993;DHT22;7592;51.088;13.732;2023-11-19T22:40:22;11.10;99.90
14993;DHT22;7592;51.088;13.732;2023-11-19T22:45:21;11.20;99.90
14993;DHT22;7592;51.088;13.732;2023-11-19T22:50:13;11.10;99.90
14993;DHT22;7592;51.088;13.732;2023-11-19T22:55:05;11.20;99.90
14993;DHT22;7592;51.088;13.732;2023-11-19T23:00:04;11.20;99.90
14993;DHT22;7592;51.088;13.732;2023-11-19T23:05:02;11.20;99.90
14993;DHT22;7592;51.088;13.732;2023-11-19T23:09:56;11.20;99.90
14993;DHT22;7592;51.088;13.732;2023-11-19T23:14:51;11.20;99.90
14993;DHT22;7592;51.088;13.732;2023-11-19T23:19:43;11.20;99.90
14993;DHT22;7592;51.088;13.732;2023-11-19T23:24:36;11.20;99.90
14993;DHT22;7592;51.088;13.732;2023-11-19T23:29:28;11.30;99.90
14993;DHT22;7592;51.088;13.732;2023-11-19T23:34:23;11.30;99.90
14993;DHT22;7592;51.088;13.732;2023-11-19T23:39:38;11.30;99.90
14993;DHT22;7592;51.088;13.732;2023-11-19T23:44:30;11.30;99.90
14993;DHT22;7592;51.088;13.732;2023-11-19T23:49:22;11.40;99.90
14993;DHT22;7592;51.088;13.732;2023-11-19T23:54:15;11.40;99.90
14993;DHT22;7592;51.088;13.732;2023-11-19T23:59:07;11.40;99.90
